Mount Sterling, Iowa
Current Conditions -  °F | °C
As of 12:55 PM on Thursday 23 Oct 2014 (Local Time) from KEOK Reporting Station
Broken Clouds Broken Clouds  
Wind Chill: 57°   Ceiling: 7000
Heat Index: 57°   Visibility: 10mi
Dew Point: 48°   Wind: 12mph
Humidity: 72%   Direction: 190°S
Pressure: 30.1"   Gusts: NA
Location:  40.62°N, 91.93°W
Report Text: KEOK 231755Z AUTO 19010KT 10SM FEW043 BKN070 BKN100 14/09 A3010 RMK AO2
Loading
Personal Weather Stations






























Interactive Weather Map
Tropical Storm Tracking
New forecast layout! Learn more

10-Day Weather Forecast

Advertisements
Track Severe Weather on mobile